Cannon Air Force Base
KCVS : rendu visible

Aérodrome :











RETROUVEZ-NOUS SUR...

 
LOGIN :

S'inscrire | Disclaimer

   EN    FR    IT 

 









Légende :    VFR   VFR Marginal   IFR   IFR Intensif   IFR Très Intensif
Visi : 
Plafond : 
>= 8 km
>= 3000ft
5 à 8 km
1000 à 3000 ft
1500m à 5 km
500 à 1000 ft
800 à 1500m
200 à 500 ft
< 800m
< 200 ft
Symboles :   Orages  Brouillard  Fortes neiges  Fortes précipitations  Vent > 20 kt






- Altitude de l'aérodrome : 4295 ft


KCVS - Cannon Air Force Base

DERNIER METAR :
  • 190258Z AUTO 08008KT 10SM OVC039 05/M02 A3028 RMK AO2 SLP255 T00451022 52016 $

METARs EXPIRÉS :
  • 190158Z AUTO 09008KT 10SM OVC039 05/M02 A3026 RMK AO2 SLP251 T00451017 $
  • 190058Z AUTO 10006KT 10SM OVC040 05/M02 A3025 RMK AO2 SLP244 T00511020 $

TAF TAF KCVS
Valide du 19 à 02h jusqu'au 20 à 08h UTC


190200Z 1902/2008 11006KT 9999 BKN060 QNH3020INS
BECMG 1909/1910 13008KT 9999 BKN025 QNH3020INS
BECMG 1919/1920 17008KT 9999 SCT200 QNH3009INS
BECMG 2005/2006 VRB06KT 9999 OVC010 QNH3021INS TX09/1921Z TNM01/1912Z



MET'MAP, la Météo Aéronautique d'un coup d'oeil ! - Copyright ORBIFLY Décembre 2007 - Disclaimer

ORBIFLY MET'MAP TEAM :

Programmation & Développement : Alexandra Zaïnal
Sur une idée originale de : Baudouin d'Aumeries
Assistance à la programmation : Marc-Olivier Méhu
Soutien technique & logistique : Manuel Goepfert

Contact : metmap@orbifly.com




SOURCES & CREDITS :

   NOAA       Earth
Advisory